Time;durP1;ratioP1;P1;durP2;ratioP2;P2;SDS_P1;SDS_P2;PMS_P1;PMS_P2;Temp;Humidity;BMP_temperature;BMP_pressure;BME280_temperature;BME280_humidity;BME280_pressure;Samples;Min_cycle;Max_cycle;Signal;HPM_P1;HPM_P2
2022/05/18 00:01:51;;;;;;;7.53;4.32;;;;;;;16.52;83.72;97062.38;5049571;28;20037;-61
2022/05/18 00:04:17;;;;;;;10.43;4.00;;;;;;;16.36;85.08;97057.25;5049051;28;20047;-63
2022/05/18 00:06:42;;;;;;;7.63;3.38;;;;;;;16.23;86.93;97065.16;5052188;28;20115;-62
2022/05/18 00:09:08;;;;;;;5.88;3.05;;;;;;;16.10;88.19;97058.44;5055966;28;20493;-61
2022/05/18 00:11:33;;;;;;;4.13;3.05;;;;;;;15.95;88.49;97058.44;5055780;28;20041;-63
2022/05/18 00:13:59;;;;;;;6.63;3.33;;;;;;;15.88;89.00;97060.41;5056206;28;20084;-62
2022/05/18 00:16:25;;;;;;;9.60;3.35;;;;;;;15.88;90.17;97057.63;5056050;28;20037;-62
2022/05/18 00:18:52;;;;;;;4.82;2.95;;;;;;;15.87;90.13;97065.16;5056010;28;20032;-62
2022/05/18 00:21:18;;;;;;;7.18;3.35;;;;;;;15.84;90.53;97061.19;5055050;28;20068;-61
2022/05/18 00:23:45;;;;;;;6.70;3.00;;;;;;;15.92;89.16;97063.94;5055789;28;20120;-60
2022/05/18 00:26:10;;;;;;;4.65;3.47;;;;;;;15.93;88.91;97074.63;5037280;28;20025;-63
2022/05/18 00:28:36;;;;;;;6.95;3.05;;;;;;;15.93;90.02;97071.06;5055947;28;20033;-61
2022/05/18 00:31:02;;;;;;;5.20;2.97;;;;;;;15.77;92.69;97065.91;5055622;28;20044;-61
2022/05/18 00:33:28;;;;;;;6.20;2.88;;;;;;;15.59;95.31;97074.13;5037639;28;20041;-62
2022/05/18 00:35:54;;;;;;;6.47;2.67;;;;;;;15.41;96.22;97072.13;5055262;28;20082;-62
2022/05/18 00:38:20;;;;;;;4.15;2.88;;;;;;;15.36;97.59;97066.16;5056385;28;20442;-62
2022/05/18 00:40:49;;;;;;;5.93;3.13;;;;;;;15.38;97.85;97064.63;5056274;28;20032;-61
2022/05/18 00:43:17;;;;;;;7.68;3.25;;;;;;;15.22;96.94;97069.69;5056375;28;20039;-62
2022/05/18 00:45:43;;;;;;;6.85;3.47;;;;;;;15.14;100.00;97066.09;5055585;28;20029;-62
2022/05/18 00:48:09;;;;;;;5.70;3.10;;;;;;;14.98;99.67;97074.72;5057126;28;20383;-64
2022/05/18 00:50:35;;;;;;;6.53;3.30;;;;;;;15.07;99.95;97064.09;5056904;28;20449;-62
2022/05/18 00:53:06;;;;;;;6.65;3.28;;;;;;;15.11;97.52;97075.16;5056293;28;20451;-62
2022/05/18 00:55:37;;;;;;;6.65;3.30;;;;;;;15.14;96.88;97070.81;5055564;28;20025;-62
2022/05/18 00:58:35;;;;;;;8.80;3.45;;;;;;;15.06;97.98;97067.25;5056053;28;20083;-63
2022/05/18 01:01:01;;;;;;;4.57;3.22;;;;;;;15.10;98.48;97057.78;5070681;22;20849;-66
2022/05/18 01:03:30;;;;;;;6.38;3.50;;;;;;;15.12;97.74;97060.16;5038210;28;20065;-66
2022/05/18 01:06:06;;;;;;;5.07;3.15;;;;;;;15.12;98.36;97057.41;5052058;28;20061;-66
2022/05/18 01:08:45;;;;;;;5.10;3.30;;;;;;;15.07;97.95;97061.34;5050858;28;20049;-65
2022/05/18 01:11:11;;;;;;;;;;;;;;;14.94;100.00;97057.34;5037665;28;20055;-65
2022/05/18 01:13:36;;;;;;;4.35;3.13;;;;;;;14.86;100.00;97055.72;5036823;28;19940;-65
2022/05/18 01:16:03;;;;;;;7.32;3.33;;;;;;;14.93;98.86;97060.47;5018512;28;20029;-65
2022/05/18 01:18:29;;;;;;;6.30;4.05;;;;;;;14.89;99.43;97061.25;5034542;28;20406;-65
2022/05/18 01:20:55;;;;;;;5.63;3.22;;;;;;;14.83;99.23;97062.00;5038732;28;20041;-65
2022/05/18 01:23:29;;;;;;;4.53;3.15;;;;;;;14.76;100.00;97064.72;5033424;28;20394;-65
2022/05/18 01:26:09;;;;;;;9.07;3.28;;;;;;;14.68;100.00;97067.44;5032751;28;20040;-65
2022/05/18 01:28:40;;;;;;;6.97;3.40;;;;;;;14.48;100.00;97077.13;5033492;28;20038;-64
2022/05/18 01:31:06;;;;;;;8.30;3.50;;;;;;;14.32;100.00;97077.41;5032908;28;20078;-64
2022/05/18 01:33:33;;;;;;;12.07;3.50;;;;;;;14.17;100.00;97086.72;5034225;28;20101;-66
2022/05/18 01:35:59;;;;;;;7.43;3.53;;;;;;;14.12;100.00;97087.88;5051317;28;20026;-64
2022/05/18 01:38:24;;;;;;;6.82;3.38;;;;;;;14.18;100.00;97083.59;5026379;28;20045;-64
2022/05/18 01:41:08;;;;;;;6.70;3.17;;;;;;;14.14;100.00;97089.06;5031984;28;20030;-64
2022/05/18 01:43:52;;;;;;;6.97;3.17;;;;;;;14.18;100.00;97091.84;5033268;28;20091;-63
2022/05/18 01:46:20;;;;;;;7.57;4.40;;;;;;;14.10;100.00;97091.00;5031762;28;20061;-63
2022/05/18 01:48:51;;;;;;;7.78;3.70;;;;;;;14.01;100.00;97096.03;5033134;28;20541;-64
2022/05/18 01:51:39;;;;;;;5.72;3.60;;;;;;;13.95;100.00;97094.78;5033158;28;20045;-64
2022/05/18 01:54:05;;;;;;;11.63;4.32;;;;;;;13.95;100.00;97095.59;5032459;28;20486;-64
2022/05/18 01:56:31;;;;;;;7.22;4.18;;;;;;;14.08;100.00;97089.78;5032032;28;20428;-64
2022/05/18 01:58:56;;;;;;;6.43;3.90;;;;;;;14.24;100.00;97084.84;5030098;28;20114;-63
2022/05/18 02:01:22;;;;;;;9.93;3.88;;;;;;;14.37;100.00;97079.81;5032310;28;20053;-62
2022/05/18 02:03:48;;;;;;;5.70;3.53;;;;;;;14.42;100.00;97084.97;5030305;28;20033;-64
2022/05/18 02:06:14;;;;;;;7.63;3.38;;;;;;;14.42;100.00;97079.47;5032158;28;20025;-64
2022/05/18 02:08:41;;;;;;;7.60;4.10;;;;;;;14.58;100.00;97086.66;5032637;28;20033;-64
2022/05/18 02:11:11;;;;;;;7.68;3.60;;;;;;;14.77;98.44;97091.91;5031374;28;20116;-64
2022/05/18 02:13:37;;;;;;;4.88;3.85;;;;;;;14.71;98.64;97093.44;5031897;28;20034;-64
2022/05/18 02:16:02;;;;;;;6.55;3.92;;;;;;;14.77;98.12;97085.63;5031801;28;20029;-64
2022/05/18 02:18:28;;;;;;;7.35;4.18;;;;;;;14.67;98.34;97093.41;5030463;28;20135;-64
2022/05/18 02:20:54;;;;;;;5.95;3.55;;;;;;;14.54;100.00;97095.66;5032370;28;20067;-63
2022/05/18 02:23:19;;;;;;;6.03;3.53;;;;;;;14.59;100.00;97099.28;5031636;28;20402;-64
2022/05/18 02:25:44;;;;;;;5.93;3.15;;;;;;;14.42;100.00;97095.19;5030555;28;20029;-63
2022/05/18 02:28:10;;;;;;;5.45;3.67;;;;;;;14.19;100.00;97104.47;5031420;28;20037;-61
2022/05/18 02:30:35;;;;;;;10.90;3.67;;;;;;;14.04;100.00;97092.50;5028642;28;20040;-63
2022/05/18 02:33:01;;;;;;;5.78;3.78;;;;;;;14.02;100.00;97102.34;5034941;28;20029;-65
2022/05/18 02:35:27;;;;;;;6.18;3.33;;;;;;;13.94;100.00;97107.78;5035811;28;20370;-63
2022/05/18 02:37:52;;;;;;;6.88;4.07;;;;;;;13.92;100.00;97107.38;5029760;28;20521;-63
2022/05/18 02:40:18;;;;;;;6.68;3.55;;;;;;;13.68;100.00;97105.94;5031115;28;20033;-64
2022/05/18 02:42:43;;;;;;;7.97;3.70;;;;;;;13.58;100.00;97107.41;5031492;28;20104;-63
2022/05/18 02:45:09;;;;;;;8.43;4.15;;;;;;;13.44;100.00;97121.00;5031041;28;20025;-63
2022/05/18 02:47:35;;;;;;;5.88;3.58;;;;;;;13.46;100.00;97118.66;5031300;28;20036;-63
2022/05/18 02:50:01;;;;;;;7.63;3.80;;;;;;;13.45;100.00;97119.84;5031834;28;20037;-63
2022/05/18 02:52:26;;;;;;;5.88;3.85;;;;;;;13.54;100.00;97119.53;5031112;28;20036;-63
2022/05/18 02:57:36;;;;;;;9.32;3.60;;;;;;;13.39;100.00;97127.63;5028881;28;20044;-64
2022/05/18 03:00:03;;;;;;;5.75;3.40;;;;;;;13.54;100.00;97130.53;5030102;28;20108;-63
2022/05/18 03:02:28;;;;;;;4.90;3.58;;;;;;;13.56;100.00;97134.50;5031898;28;20030;-64
2022/05/18 03:04:54;;;;;;;12.90;4.55;;;;;;;13.57;100.00;97132.53;5038036;28;20064;-61
2022/05/18 03:07:19;;;;;;;7.93;3.47;;;;;;;13.53;100.00;97139.97;5031073;28;20029;-63
2022/05/18 03:09:44;;;;;;;5.28;3.30;;;;;;;13.40;100.00;97147.69;5028694;28;20044;-65
2022/05/18 03:12:10;;;;;;;7.55;4.00;;;;;;;13.15;100.00;97144.59;5030584;28;20075;-63
2022/05/18 03:14:36;;;;;;;5.53;4.00;;;;;;;13.05;100.00;97151.50;5029927;28;20033;-63
2022/05/18 03:17:01;;;;;;;9.25;5.35;;;;;;;12.92;100.00;97147.41;5027897;28;20037;-63
2022/05/18 03:19:27;;;;;;;11.50;4.25;;;;;;;12.79;100.00;97153.13;5031331;28;20033;-64
2022/05/18 03:24:41;;;;;;;5.43;4.05;;;;;;;12.81;100.00;97156.28;5011640;28;20041;-63
2022/05/18 03:27:08;;;;;;;8.13;4.60;;;;;;;12.92;100.00;97156.44;5029453;28;20473;-63
2022/05/18 03:29:34;;;;;;;8.40;5.20;;;;;;;12.95;100.00;97157.66;5029951;28;20451;-64
2022/05/18 03:31:59;;;;;;;7.43;4.80;;;;;;;13.01;100.00;97164.41;5030603;28;20030;-63
2022/05/18 03:34:25;;;;;;;11.20;4.40;;;;;;;12.91;100.00;97160.38;5031243;28;20036;-63
2022/05/18 03:36:50;;;;;;;15.52;9.25;;;;;;;12.91;100.00;97156.81;5012801;28;20116;-63
2022/05/18 03:39:17;;;;;;;6.68;4.70;;;;;;;12.68;100.00;97151.38;5031430;28;20037;-61
2022/05/18 03:41:44;;;;;;;12.73;4.90;;;;;;;12.56;100.00;97155.91;5028152;28;20026;-64
2022/05/18 03:44:10;;;;;;;7.80;5.18;;;;;;;12.51;100.00;97164.44;5030481;28;20042;-64
2022/05/18 03:46:36;;;;;;;8.55;5.10;;;;;;;12.38;100.00;97165.81;5030152;28;20025;-64
2022/05/18 03:49:03;;;;;;;7.40;4.80;;;;;;;12.46;100.00;97162.03;5031219;28;20033;-61
2022/05/18 03:51:29;;;;;;;10.02;5.47;;;;;;;12.56;100.00;97160.59;5028751;28;20029;-63
2022/05/18 03:53:55;;;;;;;7.10;5.05;;;;;;;12.63;100.00;97152.47;5030889;28;20394;-63
2022/05/18 03:56:20;;;;;;;11.13;5.03;;;;;;;12.81;100.00;97164.53;5029762;28;20048;-62
2022/05/18 03:58:45;;;;;;;4.90;3.80;;;;;;;12.92;100.00;97163.91;5030504;28;20060;-62
2022/05/18 04:01:11;;;;;;;7.50;4.60;;;;;;;12.99;100.00;97166.75;5030727;28;20052;-63
2022/05/18 04:03:45;;;;;;;9.43;5.07;;;;;;;13.09;100.00;97163.38;5030233;28;20072;-62
2022/05/18 04:06:11;;;;;;;6.40;4.60;;;;;;;13.22;100.00;97174.13;5031743;28;20713;-61
2022/05/18 04:08:37;;;;;;;9.60;5.03;;;;;;;13.34;100.00;97173.94;5032429;28;20486;-62
2022/05/18 04:11:03;;;;;;;7.93;4.47;;;;;;;13.44;100.00;97178.78;5014058;28;20033;-63
2022/05/18 04:13:31;;;;;;;9.93;4.65;;;;;;;13.52;100.00;97177.72;5030998;28;20029;-63
2022/05/18 04:15:57;;;;;;;8.70;4.15;;;;;;;13.58;100.00;97178.19;5021814;28;20025;-64
2022/05/18 04:18:23;;;;;;;7.35;4.78;;;;;;;13.44;100.00;97181.53;5030454;28;20037;-64
2022/05/18 04:20:50;;;;;;;6.47;4.45;;;;;;;13.49;100.00;97183.97;5029546;28;20482;-63
2022/05/18 04:23:16;;;;;;;7.15;4.72;;;;;;;13.58;100.00;97178.97;5027994;28;20041;-64
2022/05/18 04:25:42;;;;;;;7.20;4.80;;;;;;;13.63;100.00;97180.59;5028338;28;20072;-65
2022/05/18 04:28:13;;;;;;;8.20;4.47;;;;;;;13.61;100.00;97180.16;5030491;28;20103;-65
2022/05/18 04:30:43;;;;;;;9.48;4.65;;;;;;;13.62;100.00;97189.22;5029671;28;20120;-64
2022/05/18 04:33:09;;;;;;;;;;;;;;;13.52;100.00;97188.72;5031003;28;20021;-64
2022/05/18 04:35:34;;;;;;;9.57;4.53;;;;;;;13.66;100.00;97204.59;5028805;28;19915;-64
2022/05/18 04:38:00;;;;;;;8.93;5.00;;;;;;;13.84;100.00;97196.56;5029471;28;20037;-64
2022/05/18 04:40:25;;;;;;;9.77;5.90;;;;;;;13.82;100.00;97201.66;5030336;28;20053;-63
2022/05/18 04:42:51;;;;;;;8.95;5.13;;;;;;;13.72;100.00;97200.38;5030644;28;20091;-64
2022/05/18 04:45:21;;;;;;;8.95;5.05;;;;;;;13.83;100.00;97208.75;5012560;28;20035;-64
2022/05/18 04:47:46;;;;;;;;;;;;;;;14.28;100.00;97206.09;5030621;28;20095;-63
2022/05/18 04:50:13;;;;;;;11.35;4.70;;;;;;;14.51;100.00;97205.88;5034413;28;20419;-63
2022/05/18 04:52:39;;;;;;;8.57;4.75;;;;;;;14.60;100.00;97214.66;5032686;28;20112;-61
2022/05/18 04:55:05;;;;;;;6.40;4.47;;;;;;;14.89;100.00;97214.88;5033519;28;20045;-63
2022/05/18 04:57:31;;;;;;;7.97;4.35;;;;;;;15.12;100.00;97213.88;5032559;28;20057;-63
2022/05/18 04:59:57;;;;;;;6.32;4.03;;;;;;;16.41;100.00;97215.22;5033497;28;20109;-64
2022/05/18 05:02:22;;;;;;;7.35;4.38;;;;;;;17.92;89.26;97215.06;5033369;28;20139;-64
2022/05/18 05:04:48;;;;;;;5.40;3.67;;;;;;;18.10;86.92;97214.97;5034197;28;20037;-64
2022/05/18 05:07:13;;;;;;;6.53;3.70;;;;;;;18.02;87.66;97226.50;5038606;28;20041;-64
2022/05/18 05:09:39;;;;;;;15.52;4.38;;;;;;;18.42;87.39;97222.34;5047276;28;20039;-64
2022/05/18 05:12:06;;;;;;;10.13;4.10;;;;;;;19.46;79.19;97227.03;5038176;28;20034;-64
2022/05/18 05:14:34;;;;;;;7.68;3.83;;;;;;;19.91;77.90;97230.94;5033826;28;20053;-64
2022/05/18 05:17:00;;;;;;;6.20;3.53;;;;;;;20.52;73.64;97221.78;5033270;28;20033;-64
2022/05/18 05:19:26;;;;;;;6.18;2.83;;;;;;;22.55;66.56;97232.41;5033312;28;20034;-65
2022/05/18 05:21:51;;;;;;;6.95;2.97;;;;;;;24.50;56.05;97228.84;5029996;28;20080;-64
2022/05/18 05:24:17;;;;;;;5.43;2.80;;;;;;;25.31;53.04;97228.72;5032891;28;20034;-65
2022/05/18 05:26:43;;;;;;;7.07;2.67;;;;;;;25.27;52.56;97240.06;5033427;28;20147;-63
2022/05/18 05:29:10;;;;;;;4.90;2.60;;;;;;;26.42;50.54;97240.81;5033738;28;20048;-62
2022/05/18 05:31:36;;;;;;;8.32;2.80;;;;;;;27.66;45.30;97250.28;5033261;28;20038;-64
2022/05/18 05:34:02;;;;;;;5.53;2.28;;;;;;;28.35;43.37;97251.63;5032810;28;20476;-63
2022/05/18 05:36:28;;;;;;;4.53;2.92;;;;;;;28.86;40.64;97249.28;5032486;28;20036;-62
2022/05/18 05:38:53;;;;;;;4.90;2.25;;;;;;;29.56;38.91;97257.53;5038514;28;20025;-63
2022/05/18 05:41:19;;;;;;;6.47;3.08;;;;;;;29.92;36.95;97262.13;5043260;28;20033;-63
2022/05/18 05:43:44;;;;;;;9.90;2.72;;;;;;;29.78;36.63;97262.88;5040172;28;20037;-63
2022/05/18 05:46:14;;;;;;;8.05;3.20;;;;;;;30.22;36.28;97265.00;5036459;28;20025;-63
2022/05/18 05:48:42;;;;;;;19.55;3.85;;;;;;;30.14;36.33;97263.03;5034739;28;20037;-64
2022/05/18 05:51:15;;;;;;;7.40;2.88;;;;;;;29.62;37.64;97261.25;5032293;28;20040;-64
2022/05/18 05:53:46;;;;;;;11.93;3.00;;;;;;;30.60;35.72;97268.25;5031419;28;20065;-65
2022/05/18 05:56:13;;;;;;;6.72;3.10;;;;;;;30.97;34.40;97267.81;5032095;28;20636;-64
2022/05/18 05:58:40;;;;;;;5.70;2.60;;;;;;;31.17;33.39;97267.09;5035768;28;20041;-64
2022/05/18 06:01:08;;;;;;;4.45;3.13;;;;;;;31.03;33.99;97269.47;5035006;28;20039;-64
2022/05/18 06:03:34;;;;;;;5.85;3.08;;;;;;;31.02;34.16;97275.63;5031207;28;20119;-63
2022/05/18 06:06:00;;;;;;;5.75;2.83;;;;;;;30.66;34.71;97269.88;5029936;28;20029;-63
2022/05/18 06:08:26;;;;;;;6.53;2.72;;;;;;;31.14;33.96;97270.94;5032031;28;20025;-65
2022/05/18 06:10:52;;;;;;;7.47;2.90;;;;;;;31.41;34.04;97261.25;5030421;28;20395;-65
2022/05/18 06:13:18;;;;;;;6.05;2.85;;;;;;;30.95;35.05;97264.72;5032605;28;20036;-64
2022/05/18 06:15:43;;;;;;;6.45;3.03;;;;;;;31.58;33.64;97267.16;5031983;28;20390;-65
2022/05/18 06:18:10;;;;;;;3.88;2.75;;;;;;;32.06;32.63;97280.13;5032349;28;20113;-66
2022/05/18 06:20:36;;;;;;;4.47;2.38;;;;;;;31.97;32.75;97276.13;5032826;28;20025;-64
2022/05/18 06:23:08;;;;;;;5.78;2.70;;;;;;;31.54;32.88;97277.94;5032287;28;20079;-64
2022/05/18 06:25:35;;;;;;;7.95;2.70;;;;;;;31.82;33.52;97276.22;5031172;28;20025;-64
2022/05/18 06:28:01;;;;;;;5.03;2.95;;;;;;;30.45;34.42;97274.69;5032968;28;20059;-63
2022/05/18 06:30:26;;;;;;;6.45;2.83;;;;;;;29.59;37.73;97272.72;5031285;28;20029;-64
2022/05/18 06:32:53;;;;;;;4.10;2.85;;;;;;;29.64;37.23;97269.22;5027819;28;20754;-62
2022/05/18 06:35:19;;;;;;;5.00;2.90;;;;;;;28.16;41.13;97275.44;5030317;28;20534;-65
2022/05/18 06:37:44;;;;;;;4.22;2.55;;;;;;;28.64;39.41;97270.03;5030302;28;20113;-66
2022/05/18 06:40:10;;;;;;;5.97;2.80;;;;;;;25.21;46.53;97269.88;5030564;28;20082;-67
2022/05/18 06:42:36;;;;;;;6.55;2.33;;;;;;;27.80;39.00;97274.97;5031420;28;20044;-64
2022/05/18 06:45:03;;;;;;;7.00;2.58;;;;;;;25.71;43.81;97270.22;5030187;28;20478;-64
2022/05/18 06:47:30;;;;;;;6.22;2.38;;;;;;;24.73;44.75;97269.78;5030347;28;20033;-63
2022/05/18 06:49:57;;;;;;;3.90;2.38;;;;;;;23.95;48.80;97268.06;5030984;28;20040;-63
2022/05/18 06:52:23;;;;;;;6.40;3.00;;;;;;;24.56;47.06;97268.31;5031101;28;20087;-63
2022/05/18 06:54:48;;;;;;;4.30;2.60;;;;;;;23.35;49.83;97271.19;5030898;28;20111;-64
2022/05/18 06:57:14;;;;;;;5.78;3.33;;;;;;;22.85;52.81;97272.38;5030869;28;20029;-62
2022/05/18 06:59:39;;;;;;;5.65;3.13;;;;;;;24.73;48.51;97247.38;5026951;28;20049;-65
2022/05/18 07:02:06;;;;;;;5.30;2.90;;;;;;;23.94;49.78;97265.69;5030193;28;20492;-65
2022/05/18 07:04:32;;;;;;;8.52;2.75;;;;;;;22.70;53.12;97263.56;5029564;28;20034;-65
2022/05/18 07:07:00;;;;;;;11.65;3.53;;;;;;;24.18;49.95;97260.59;5030870;28;20109;-66
2022/05/18 07:09:27;;;;;;;6.22;2.97;;;;;;;22.88;53.57;97265.94;5030376;28;20678;-65
2022/05/18 07:11:53;;;;;;;8.32;3.63;;;;;;;23.95;51.18;97270.03;5027490;28;20390;-64
2022/05/18 07:14:25;;;;;;;6.35;2.83;;;;;;;24.59;48.87;97261.81;5028848;28;20029;-64
2022/05/18 07:16:50;;;;;;;6.72;2.90;;;;;;;24.52;49.09;97259.97;5028341;28;20040;-65
2022/05/18 07:19:18;;;;;;;5.35;2.38;;;;;;;25.69;46.89;97261.47;5017352;28;20049;-64
2022/05/18 07:21:45;;;;;;;9.98;5.05;;;;;;;25.75;44.93;97254.81;5003947;28;20168;-64
2022/05/18 07:24:11;;;;;;;6.30;3.00;;;;;;;26.41;44.18;97254.03;4995486;28;20502;-64
2022/05/18 07:26:37;;;;;;;6.30;2.67;;;;;;;25.30;45.83;97260.78;5020941;28;20089;-64
2022/05/18 07:29:05;;;;;;;5.35;2.78;;;;;;;24.59;49.66;97254.19;5025028;28;20044;-63
2022/05/18 07:32:08;;;;;;;6.85;2.88;;;;;;;24.14;49.74;97257.13;5021644;28;20064;-63
2022/05/18 07:34:16;;;;;;;7.32;2.90;;;;;;;26.40;43.45;97263.72;5016613;28;20044;-64
2022/05/18 07:36:41;;;;;;;5.80;2.65;;;;;;;26.82;41.03;97252.06;5020382;28;20037;-64
2022/05/18 07:39:07;;;;;;;11.02;3.03;;;;;;;27.08;40.96;97261.09;5014967;28;20041;-63
2022/05/18 07:41:32;;;;;;;5.68;2.53;;;;;;;26.67;41.71;97263.09;5016469;28;20037;-63
2022/05/18 07:43:58;;;;;;;4.47;2.53;;;;;;;25.71;44.84;97268.22;5020231;28;20041;-64
2022/05/18 07:46:23;;;;;;;4.72;2.28;;;;;;;27.63;41.02;97265.25;5013947;28;20657;-63
2022/05/18 07:48:48;;;;;;;4.97;2.30;;;;;;;26.93;42.88;97265.69;5020846;28;20042;-64
2022/05/18 07:51:14;;;;;;;6.47;2.90;;;;;;;25.19;47.15;97272.31;5015549;28;20136;-63
2022/05/18 07:53:40;;;;;;;6.45;2.78;;;;;;;28.25;41.17;97264.16;5021020;28;20045;-63
2022/05/18 07:56:05;;;;;;;6.82;2.95;;;;;;;28.96;40.56;97271.31;5015376;28;20047;-63
2022/05/18 07:58:30;;;;;;;8.13;2.58;;;;;;;28.71;39.54;97269.72;5004210;28;20046;-64
2022/05/18 08:00:56;;;;;;;5.57;2.85;;;;;;;26.45;44.86;97267.94;5010389;28;20057;-63
2022/05/18 08:03:21;;;;;;;5.32;2.28;;;;;;;25.71;44.52;97262.59;5008762;28;20629;-64
2022/05/18 08:05:47;;;;;;;9.85;2.60;;;;;;;26.42;44.89;97264.03;5006090;28;20168;-64
2022/05/18 08:08:19;;;;;;;5.07;2.67;;;;;;;28.09;39.62;97258.84;5015256;28;20045;-63
2022/05/18 08:16:14;;;;;;;7.13;3.35;;;;;;;29.22;38.82;97253.22;5014011;28;20530;-64
2022/05/18 08:18:39;;;;;;;8.68;4.35;;;;;;;29.31;38.67;97251.09;5026267;28;20053;-64
2022/05/18 08:21:05;;;;;;;5.18;2.50;;;;;;;28.01;41.07;97250.75;5015085;28;20048;-64
2022/05/18 08:23:30;;;;;;;7.22;3.30;;;;;;;27.85;42.74;97251.03;5018755;28;20042;-64
2022/05/18 08:25:57;;;;;;;7.35;2.70;;;;;;;28.82;40.25;97249.47;5020029;28;20055;-64
2022/05/18 08:28:23;;;;;;;5.35;2.30;;;;;;;29.23;39.17;97252.72;5017899;28;20050;-65
2022/05/18 08:30:50;;;;;;;5.15;2.50;;;;;;;29.51;37.89;97244.06;5022839;28;20061;-65
2022/05/18 08:33:15;;;;;;;5.25;2.47;;;;;;;30.23;37.88;97246.00;5019832;28;20513;-64
2022/05/18 08:35:44;;;;;;;8.00;2.15;;;;;;;31.30;34.00;97242.09;5022856;28;20045;-66
2022/05/18 08:38:10;;;;;;;6.72;2.60;;;;;;;31.02;35.29;97239.63;5000165;28;20044;-65
2022/05/18 08:40:49;;;;;;;4.10;2.40;;;;;;;26.21;43.47;97242.38;5004596;28;20046;-64
2022/05/18 08:43:23;;;;;;;4.18;2.35;;;;;;;25.71;45.76;97242.16;5001258;28;20046;-63
2022/05/18 08:46:01;;;;;;;9.68;2.72;;;;;;;24.86;46.30;97241.00;5015232;28;20050;-63
2022/05/18 08:48:49;;;;;;;11.95;2.85;;;;;;;26.26;44.90;97239.78;5000784;28;20156;-65
2022/05/18 08:51:20;;;;;;;6.65;2.72;;;;;;;27.04;45.88;97237.16;5012515;28;20033;-61
2022/05/18 08:53:54;;;;;;;7.45;3.30;;;;;;;26.89;46.46;97239.78;5028399;28;20586;-63
2022/05/18 08:56:26;;;;;;;7.07;3.17;;;;;;;28.65;42.26;97239.81;5021252;28;20156;-63
2022/05/18 08:58:54;;;;;;;6.57;3.20;;;;;;;29.08;40.84;97244.19;5025206;28;20397;-63
2022/05/18 09:01:22;;;;;;;7.68;2.63;;;;;;;29.05;40.19;97245.13;5036382;28;20053;-63
2022/05/18 09:03:54;;;;;;;6.93;3.63;;;;;;;28.74;41.57;97239.81;5033987;28;20056;-62
2022/05/18 09:06:35;;;;;;;6.65;3.88;;;;;;;28.55;42.50;97241.91;5018993;28;20118;-63
2022/05/18 09:11:49;;;;;;;8.70;3.30;;;;;;;29.68;40.68;97248.03;5027130;28;20148;-64
2022/05/18 09:14:20;;;;;;;4.95;2.92;;;;;;;29.98;40.38;97241.69;5037843;28;20127;-64
2022/05/18 09:17:14;;;;;;;4.93;3.17;;;;;;;30.05;38.67;97244.13;5021140;28;20049;-63
2022/05/18 09:19:46;;;;;;;5.95;2.88;;;;;;;30.12;37.88;97240.94;5006025;28;20398;-65
2022/05/18 09:22:47;;;;;;;7.18;3.42;;;;;;;30.31;38.80;97242.31;4998956;28;20042;-63
2022/05/18 09:25:34;;;;;;;10.63;4.13;;;;;;;29.95;39.64;97245.50;5002805;28;20449;-63
2022/05/18 09:28:21;;;;;;;6.75;3.38;;;;;;;29.53;40.22;97245.16;5013347;28;20068;-63
2022/05/18 09:31:05;;;;;;;6.93;3.88;;;;;;;29.64;40.08;97243.81;5019359;28;20049;-63
2022/05/18 09:34:01;;;;;;;7.38;3.50;;;;;;;29.38;40.45;97243.56;5004591;28;20038;-63
2022/05/18 09:36:36;;;;;;;15.32;4.18;;;;;;;29.08;42.23;97237.75;5005472;28;20042;-62
2022/05/18 09:39:08;;;;;;;9.18;3.95;;;;;;;29.19;42.96;97238.03;5011055;28;20379;-63
2022/05/18 09:41:41;;;;;;;8.45;4.05;;;;;;;29.40;41.08;97236.16;5013663;28;20046;-63
2022/05/18 09:44:42;;;;;;;11.85;4.90;;;;;;;29.13;42.34;97229.41;4999066;28;20042;-63
2022/05/18 09:47:12;;;;;;;9.90;4.15;;;;;;;28.78;43.64;97232.72;4996512;28;20049;-63
2022/05/18 09:49:48;;;;;;;4.22;3.20;;;;;;;28.26;43.62;97231.16;5003535;28;20120;-62
2022/05/18 09:52:17;;;;;;;8.75;3.88;;;;;;;28.65;42.53;97231.34;4998562;28;20045;-64
2022/05/18 09:54:43;;;;;;;5.28;2.95;;;;;;;28.31;44.08;97222.06;5019679;28;20156;-63
2022/05/18 09:57:13;;;;;;;6.72;3.15;;;;;;;28.78;41.65;97218.63;5015199;28;20045;-62
2022/05/18 09:59:44;;;;;;;6.45;2.63;;;;;;;28.32;40.08;97221.56;5032700;28;20136;-62
2022/05/18 10:07:50;;;;;;;4.82;2.65;;;;;;;28.89;39.74;97214.50;5040208;28;20060;-63
2022/05/18 10:10:38;;;;;;;10.00;3.97;;;;;;;29.01;42.67;97212.72;5017274;28;20046;-63
2022/05/18 10:13:10;;;;;;;7.85;2.92;;;;;;;29.04;39.49;97197.66;5004642;28;20036;-63
2022/05/18 10:15:48;;;;;;;5.25;3.10;;;;;;;28.37;41.93;97206.84;5022213;28;20075;-62
2022/05/18 10:18:29;;;;;;;4.22;2.70;;;;;;;28.18;40.52;97192.06;5018950;28;20073;-64
2022/05/18 10:21:20;;;;;;;4.80;2.70;;;;;;;29.42;40.07;97190.53;5025909;28;20057;-63
2022/05/18 10:23:52;;;;;;;7.90;3.22;;;;;;;28.46;40.76;97186.31;5021517;28;20057;-64
2022/05/18 10:26:27;;;;;;;4.15;1.75;;;;;;;27.41;37.88;97206.34;5016504;28;20540;-64
2022/05/18 10:29:00;;;;;;;3.28;2.20;;;;;;;26.73;38.90;97190.25;5022070;28;20048;-63
2022/05/18 10:31:38;;;;;;;5.15;2.33;;;;;;;26.37;39.47;97191.63;5018607;28;20422;-63
2022/05/18 10:34:14;;;;;;;6.50;2.33;;;;;;;26.48;41.03;97179.97;5020254;28;20095;-64
2022/05/18 10:36:50;;;;;;;7.10;2.40;;;;;;;26.62;41.13;97182.25;5021429;28;20037;-63
2022/05/18 10:39:48;;;;;;;3.60;2.30;;;;;;;26.87;39.49;97184.03;5016549;28;20053;-65
2022/05/18 10:42:25;;;;;;;6.75;2.17;;;;;;;26.83;39.33;97174.97;4995807;28;20034;-65
2022/05/18 10:44:56;;;;;;;3.92;1.83;;;;;;;27.46;40.01;97175.56;5002479;28;20143;-64
2022/05/18 10:47:33;;;;;;;3.85;2.10;;;;;;;28.37;38.09;97161.00;4997363;28;20084;-63
2022/05/18 10:50:28;;;;;;;4.22;2.08;;;;;;;28.31;38.68;97168.56;5001966;28;20683;-63
2022/05/18 10:53:13;;;;;;;8.60;2.45;;;;;;;26.66;40.22;97163.22;5010368;28;20405;-64
2022/05/18 10:55:58;;;;;;;6.60;2.97;;;;;;;27.50;40.54;97169.78;4988456;28;20105;-64
2022/05/18 10:58:36;;;;;;;8.32;6.15;;;;;;;26.55;42.84;97164.88;5016595;28;20421;-62
2022/05/18 11:01:19;;;;;;;4.43;2.08;;;;;;;26.33;38.94;97158.06;5020726;28;20473;-65
2022/05/18 11:03:56;;;;;;;3.58;1.88;;;;;;;26.24;39.53;97155.22;5020596;28;20073;-65
2022/05/18 11:06:24;;;;;;;4.90;1.70;;;;;;;26.79;39.99;97153.88;5015377;28;20057;-63
2022/05/18 11:08:50;;;;;;;5.25;1.90;;;;;;;26.18;38.56;97145.84;5021002;28;20064;-64
2022/05/18 11:11:36;;;;;;;2.63;1.85;;;;;;;26.09;39.58;97146.59;4998700;28;20406;-62
2022/05/18 11:14:34;;;;;;;5.63;1.88;;;;;;;26.58;38.78;97144.25;5027520;28;20029;-64
2022/05/18 11:17:10;;;;;;;4.68;1.77;;;;;;;26.37;39.34;97134.69;5018887;28;20090;-63
2022/05/18 11:20:21;;;;;;;5.53;2.00;;;;;;;25.96;39.69;97136.69;5018094;28;20487;-65
2022/05/18 11:23:21;;;;;;;4.75;1.90;;;;;;;25.81;38.12;97136.41;5015494;28;20068;-64
2022/05/18 11:25:57;;;;;;;6.05;2.10;;;;;;;26.68;38.34;97124.19;5005404;28;20057;-63
2022/05/18 11:28:31;;;;;;;4.28;2.10;;;;;;;26.26;37.53;97132.31;5015954;28;20523;-63
2022/05/18 11:31:31;;;;;;;5.88;1.90;;;;;;;26.61;38.41;97123.72;5021439;28;20091;-63
2022/05/18 11:34:17;;;;;;;8.13;1.80;;;;;;;27.15;39.31;97118.63;5021054;28;20046;-63
2022/05/18 11:37:07;;;;;;;6.90;1.70;;;;;;;27.25;35.96;97114.59;5020645;28;20132;-63
2022/05/18 11:39:48;;;;;;;4.28;1.70;;;;;;;27.14;34.06;97117.09;5019158;28;20037;-62
2022/05/18 11:42:50;;;;;;;3.83;2.35;;;;;;;27.46;33.61;97112.91;5014685;28;20092;-63
2022/05/18 11:45:41;;;;;;;6.10;1.50;;;;;;;27.43;34.87;97111.78;5013823;28;20041;-63
2022/05/18 11:48:33;;;;;;;4.63;1.73;;;;;;;27.43;34.30;97106.16;5018238;28;20041;-63
2022/05/18 11:51:20;;;;;;;2.95;1.67;;;;;;;27.16;37.32;97104.13;5021025;28;20505;-64
2022/05/18 11:54:19;;;;;;;5.47;1.70;;;;;;;27.00;37.11;97096.00;5020580;28;20075;-64
2022/05/18 11:57:13;;;;;;;2.72;1.70;;;;;;;26.94;35.64;97092.22;5018916;28;20038;-64
2022/05/18 12:00:11;;;;;;;3.67;1.63;;;;;;;27.60;37.46;97083.31;5020148;28;20041;-66
2022/05/18 12:02:54;;;;;;;5.15;1.40;;;;;;;27.75;37.46;97084.25;5020831;28;20046;-64
2022/05/18 12:05:52;;;;;;;3.47;2.28;;;;;;;28.44;35.64;97069.75;5015629;28;20037;-64
2022/05/18 12:08:39;;;;;;;4.25;1.35;;;;;;;28.56;35.23;97074.41;5015213;28;20033;-65